sensor_id;sensor_type;location;lat;lon;timestamp;P1;durP1;ratioP1;P2;durP2;ratioP2
52202;SDS011;38173;52.850;6.970;2024-01-30T00:01:52;1.17;;;0.50;;
52202;SDS011;38173;52.850;6.970;2024-01-30T00:04:17;1.48;;;0.63;;
52202;SDS011;38173;52.850;6.970;2024-01-30T00:06:44;1.65;;;0.68;;
52202;SDS011;38173;52.850;6.970;2024-01-30T00:09:09;1.40;;;0.73;;
52202;SDS011;38173;52.850;6.970;2024-01-30T00:11:36;1.90;;;0.73;;
52202;SDS011;38173;52.850;6.970;2024-01-30T00:14:04;1.88;;;0.63;;
52202;SDS011;38173;52.850;6.970;2024-01-30T00:16:30;1.25;;;0.57;;
52202;SDS011;38173;52.850;6.970;2024-01-30T00:18:56;1.45;;;0.55;;
52202;SDS011;38173;52.850;6.970;2024-01-30T00:21:22;1.83;;;0.60;;
52202;SDS011;38173;52.850;6.970;2024-01-30T00:23:47;1.67;;;0.90;;
52202;SDS011;38173;52.850;6.970;2024-01-30T00:26:16;1.85;;;0.82;;
52202;SDS011;38173;52.850;6.970;2024-01-30T00:28:41;2.67;;;0.85;;
52202;SDS011;38173;52.850;6.970;2024-01-30T00:31:07;1.10;;;0.60;;
52202;SDS011;38173;52.850;6.970;2024-01-30T00:33:37;1.23;;;0.50;;
52202;SDS011;38173;52.850;6.970;2024-01-30T00:36:04;0.22;;;0.22;;
52202;SDS011;38173;52.850;6.970;2024-01-30T00:38:31;0.35;;;0.30;;
52202;SDS011;38173;52.850;6.970;2024-01-30T00:40:57;0.70;;;0.30;;
52202;SDS011;38173;52.850;6.970;2024-01-30T00:43:22;0.77;;;0.47;;
52202;SDS011;38173;52.850;6.970;2024-01-30T00:45:49;0.30;;;0.30;;
52202;SDS011;38173;52.850;6.970;2024-01-30T00:48:17;1.05;;;0.50;;
52202;SDS011;38173;52.850;6.970;2024-01-30T00:50:42;0.25;;;0.20;;
52202;SDS011;38173;52.850;6.970;2024-01-30T00:53:08;0.45;;;0.32;;
52202;SDS011;38173;52.850;6.970;2024-01-30T00:55:34;0.25;;;0.25;;
52202;SDS011;38173;52.850;6.970;2024-01-30T00:58:00;0.40;;;0.30;;
52202;SDS011;38173;52.850;6.970;2024-01-30T01:00:26;0.75;;;0.47;;
52202;SDS011;38173;52.850;6.970;2024-01-30T01:02:55;1.25;;;0.57;;
52202;SDS011;38173;52.850;6.970;2024-01-30T01:05:20;0.40;;;0.40;;
52202;SDS011;38173;52.850;6.970;2024-01-30T01:07:46;0.50;;;0.40;;
52202;SDS011;38173;52.850;6.970;2024-01-30T01:10:13;0.20;;;0.20;;
52202;SDS011;38173;52.850;6.970;2024-01-30T01:12:39;0.77;;;0.35;;
52202;SDS011;38173;52.850;6.970;2024-01-30T01:15:05;0.52;;;0.43;;
52202;SDS011;38173;52.850;6.970;2024-01-30T01:17:34;0.65;;;0.30;;
52202;SDS011;38173;52.850;6.970;2024-01-30T01:20:00;0.80;;;0.32;;
52202;SDS011;38173;52.850;6.970;2024-01-30T01:22:25;0.22;;;0.22;;
52202;SDS011;38173;52.850;6.970;2024-01-30T01:24:51;1.10;;;0.47;;
52202;SDS011;38173;52.850;6.970;2024-01-30T01:27:17;0.35;;;0.30;;
52202;SDS011;38173;52.850;6.970;2024-01-30T01:29:42;1.05;;;0.50;;
52202;SDS011;38173;52.850;6.970;2024-01-30T01:32:10;0.65;;;0.40;;
52202;SDS011;38173;52.850;6.970;2024-01-30T01:34:36;1.20;;;0.60;;
52202;SDS011;38173;52.850;6.970;2024-01-30T01:37:02;0.28;;;0.28;;
52202;SDS011;38173;52.850;6.970;2024-01-30T01:39:27;0.47;;;0.40;;
52202;SDS011;38173;52.850;6.970;2024-01-30T01:41:53;0.73;;;0.32;;
52202;SDS011;38173;52.850;6.970;2024-01-30T01:44:19;0.47;;;0.40;;
52202;SDS011;38173;52.850;6.970;2024-01-30T01:46:44;0.68;;;0.43;;
52202;SDS011;38173;52.850;6.970;2024-01-30T01:49:10;0.63;;;0.43;;
52202;SDS011;38173;52.850;6.970;2024-01-30T01:51:36;0.85;;;0.50;;
52202;SDS011;38173;52.850;6.970;2024-01-30T01:54:04;0.77;;;0.40;;
52202;SDS011;38173;52.850;6.970;2024-01-30T01:56:30;0.85;;;0.57;;
52202;SDS011;38173;52.850;6.970;2024-01-30T01:58:59;1.10;;;0.55;;
52202;SDS011;38173;52.850;6.970;2024-01-30T02:01:27;1.03;;;0.27;;
52202;SDS011;38173;52.850;6.970;2024-01-30T02:03:54;1.25;;;0.65;;
52202;SDS011;38173;52.850;6.970;2024-01-30T02:06:20;1.65;;;0.40;;
52202;SDS011;38173;52.850;6.970;2024-01-30T02:08:46;2.25;;;1.05;;
52202;SDS011;38173;52.850;6.970;2024-01-30T02:11:12;2.92;;;1.23;;
52202;SDS011;38173;52.850;6.970;2024-01-30T02:13:38;2.03;;;0.77;;
52202;SDS011;38173;52.850;6.970;2024-01-30T02:16:03;3.08;;;0.98;;
52202;SDS011;38173;52.850;6.970;2024-01-30T02:18:29;2.15;;;0.73;;
52202;SDS011;38173;52.850;6.970;2024-01-30T02:20:56;2.10;;;0.80;;
52202;SDS011;38173;52.850;6.970;2024-01-30T02:23:24;2.63;;;1.13;;
52202;SDS011;38173;52.850;6.970;2024-01-30T02:25:52;1.83;;;0.70;;
52202;SDS011;38173;52.850;6.970;2024-01-30T02:28:18;0.85;;;0.57;;
52202;SDS011;38173;52.850;6.970;2024-01-30T02:30:45;1.63;;;0.70;;
52202;SDS011;38173;52.850;6.970;2024-01-30T02:33:11;1.70;;;0.70;;
52202;SDS011;38173;52.850;6.970;2024-01-30T02:35:40;1.20;;;0.57;;
52202;SDS011;38173;52.850;6.970;2024-01-30T02:38:05;1.50;;;0.52;;
52202;SDS011;38173;52.850;6.970;2024-01-30T02:40:31;1.40;;;0.80;;
52202;SDS011;38173;52.850;6.970;2024-01-30T02:42:58;1.13;;;0.50;;
52202;SDS011;38173;52.850;6.970;2024-01-30T02:45:25;3.05;;;0.88;;
52202;SDS011;38173;52.850;6.970;2024-01-30T02:47:51;1.27;;;0.77;;
52202;SDS011;38173;52.850;6.970;2024-01-30T02:50:17;1.77;;;0.77;;
52202;SDS011;38173;52.850;6.970;2024-01-30T02:52:42;2.25;;;0.82;;
52202;SDS011;38173;52.850;6.970;2024-01-30T02:55:11;1.75;;;0.75;;
52202;SDS011;38173;52.850;6.970;2024-01-30T02:57:37;1.30;;;0.60;;
52202;SDS011;38173;52.850;6.970;2024-01-30T03:00:03;1.48;;;0.73;;
52202;SDS011;38173;52.850;6.970;2024-01-30T03:02:31;1.75;;;0.70;;
52202;SDS011;38173;52.850;6.970;2024-01-30T03:04:57;1.27;;;0.88;;
52202;SDS011;38173;52.850;6.970;2024-01-30T03:07:23;1.80;;;0.80;;
52202;SDS011;38173;52.850;6.970;2024-01-30T03:09:49;3.13;;;1.17;;
52202;SDS011;38173;52.850;6.970;2024-01-30T03:12:14;2.33;;;0.98;;
52202;SDS011;38173;52.850;6.970;2024-01-30T03:14:40;1.27;;;0.70;;
52202;SDS011;38173;52.850;6.970;2024-01-30T03:17:06;1.52;;;0.70;;
52202;SDS011;38173;52.850;6.970;2024-01-30T03:19:33;1.23;;;0.70;;
52202;SDS011;38173;52.850;6.970;2024-01-30T03:21:58;1.83;;;0.70;;
52202;SDS011;38173;52.850;6.970;2024-01-30T03:24:25;2.58;;;0.80;;
52202;SDS011;38173;52.850;6.970;2024-01-30T03:26:51;1.58;;;0.77;;
52202;SDS011;38173;52.850;6.970;2024-01-30T03:29:17;1.17;;;0.68;;
52202;SDS011;38173;52.850;6.970;2024-01-30T03:31:42;1.13;;;0.57;;
52202;SDS011;38173;52.850;6.970;2024-01-30T03:34:08;0.82;;;0.50;;
52202;SDS011;38173;52.850;6.970;2024-01-30T03:36:33;0.65;;;0.40;;
52202;SDS011;38173;52.850;6.970;2024-01-30T03:39:02;0.47;;;0.38;;
52202;SDS011;38173;52.850;6.970;2024-01-30T03:41:28;0.60;;;0.40;;
52202;SDS011;38173;52.850;6.970;2024-01-30T03:43:54;1.40;;;0.70;;
52202;SDS011;38173;52.850;6.970;2024-01-30T03:46:19;0.30;;;0.30;;
52202;SDS011;38173;52.850;6.970;2024-01-30T03:48:45;0.82;;;0.43;;
52202;SDS011;38173;52.850;6.970;2024-01-30T03:51:11;1.30;;;0.43;;
52202;SDS011;38173;52.850;6.970;2024-01-30T03:53:40;1.67;;;0.60;;
52202;SDS011;38173;52.850;6.970;2024-01-30T03:56:06;0.75;;;0.50;;
52202;SDS011;38173;52.850;6.970;2024-01-30T03:58:32;1.13;;;0.45;;
52202;SDS011;38173;52.850;6.970;2024-01-30T04:00:58;1.30;;;0.70;;
52202;SDS011;38173;52.850;6.970;2024-01-30T04:03:24;2.42;;;0.82;;
52202;SDS011;38173;52.850;6.970;2024-01-30T04:05:51;3.53;;;0.75;;
52202;SDS011;38173;52.850;6.970;2024-01-30T04:08:17;0.88;;;0.57;;
52202;SDS011;38173;52.850;6.970;2024-01-30T04:10:43;2.33;;;0.82;;
52202;SDS011;38173;52.850;6.970;2024-01-30T04:13:08;2.95;;;1.13;;
52202;SDS011;38173;52.850;6.970;2024-01-30T04:15:34;1.33;;;0.70;;
52202;SDS011;38173;52.850;6.970;2024-01-30T04:18:00;2.15;;;0.77;;
52202;SDS011;38173;52.850;6.970;2024-01-30T04:20:25;1.58;;;0.70;;
52202;SDS011;38173;52.850;6.970;2024-01-30T04:22:51;2.63;;;0.95;;
52202;SDS011;38173;52.850;6.970;2024-01-30T04:25:17;2.60;;;0.98;;
52202;SDS011;38173;52.850;6.970;2024-01-30T04:27:42;2.25;;;0.90;;
52202;SDS011;38173;52.850;6.970;2024-01-30T04:30:08;3.20;;;1.10;;
52202;SDS011;38173;52.850;6.970;2024-01-30T04:32:35;3.15;;;1.20;;
52202;SDS011;38173;52.850;6.970;2024-01-30T04:35:01;2.88;;;0.77;;
52202;SDS011;38173;52.850;6.970;2024-01-30T04:37:27;1.90;;;0.80;;
52202;SDS011;38173;52.850;6.970;2024-01-30T04:39:53;2.78;;;0.82;;
52202;SDS011;38173;52.850;6.970;2024-01-30T04:42:18;0.82;;;0.68;;
52202;SDS011;38173;52.850;6.970;2024-01-30T04:44:44;1.52;;;0.60;;
52202;SDS011;38173;52.850;6.970;2024-01-30T04:47:10;1.83;;;0.77;;
52202;SDS011;38173;52.850;6.970;2024-01-30T04:49:40;1.52;;;0.63;;
52202;SDS011;38173;52.850;6.970;2024-01-30T04:52:06;0.95;;;0.65;;
52202;SDS011;38173;52.850;6.970;2024-01-30T04:54:32;6.35;;;0.93;;
52202;SDS011;38173;52.850;6.970;2024-01-30T04:56:58;4.45;;;0.95;;
52202;SDS011;38173;52.850;6.970;2024-01-30T04:59:24;3.60;;;1.10;;
52202;SDS011;38173;52.850;6.970;2024-01-30T05:01:50;2.00;;;0.80;;
52202;SDS011;38173;52.850;6.970;2024-01-30T05:04:15;0.55;;;0.50;;
52202;SDS011;38173;52.850;6.970;2024-01-30T05:06:41;3.67;;;0.98;;
52202;SDS011;38173;52.850;6.970;2024-01-30T05:09:07;1.65;;;0.73;;
52202;SDS011;38173;52.850;6.970;2024-01-30T05:11:37;1.13;;;0.68;;
52202;SDS011;38173;52.850;6.970;2024-01-30T05:14:04;2.30;;;0.93;;
52202;SDS011;38173;52.850;6.970;2024-01-30T05:16:31;2.35;;;1.00;;
52202;SDS011;38173;52.850;6.970;2024-01-30T05:18:57;1.33;;;0.70;;
52202;SDS011;38173;52.850;6.970;2024-01-30T05:21:23;2.90;;;0.80;;
52202;SDS011;38173;52.850;6.970;2024-01-30T05:23:48;3.88;;;1.52;;
52202;SDS011;38173;52.850;6.970;2024-01-30T05:26:14;1.45;;;0.75;;
52202;SDS011;38173;52.850;6.970;2024-01-30T05:28:40;2.30;;;0.90;;
52202;SDS011;38173;52.850;6.970;2024-01-30T05:31:05;1.92;;;0.90;;
52202;SDS011;38173;52.850;6.970;2024-01-30T05:33:31;3.00;;;1.00;;
52202;SDS011;38173;52.850;6.970;2024-01-30T05:35:57;0.90;;;0.60;;
52202;SDS011;38173;52.850;6.970;2024-01-30T05:38:22;1.42;;;0.55;;
52202;SDS011;38173;52.850;6.970;2024-01-30T05:40:48;2.40;;;0.93;;
52202;SDS011;38173;52.850;6.970;2024-01-30T05:43:13;2.88;;;0.73;;
52202;SDS011;38173;52.850;6.970;2024-01-30T05:45:39;2.58;;;0.90;;
52202;SDS011;38173;52.850;6.970;2024-01-30T05:48:05;1.75;;;0.77;;
52202;SDS011;38173;52.850;6.970;2024-01-30T05:50:31;2.88;;;1.10;;
52202;SDS011;38173;52.850;6.970;2024-01-30T05:52:56;2.55;;;0.80;;
52202;SDS011;38173;52.850;6.970;2024-01-30T05:55:22;1.42;;;0.80;;
52202;SDS011;38173;52.850;6.970;2024-01-30T05:57:48;2.65;;;0.90;;
52202;SDS011;38173;52.850;6.970;2024-01-30T06:00:14;1.90;;;1.05;;
52202;SDS011;38173;52.850;6.970;2024-01-30T06:02:40;2.05;;;0.80;;
52202;SDS011;38173;52.850;6.970;2024-01-30T06:05:05;3.65;;;1.25;;
52202;SDS011;38173;52.850;6.970;2024-01-30T06:07:31;2.95;;;1.10;;
52202;SDS011;38173;52.850;6.970;2024-01-30T06:09:57;1.25;;;0.70;;
52202;SDS011;38173;52.850;6.970;2024-01-30T06:12:23;3.05;;;0.82;;
52202;SDS011;38173;52.850;6.970;2024-01-30T06:14:48;2.88;;;1.25;;
52202;SDS011;38173;52.850;6.970;2024-01-30T06:17:14;2.72;;;1.05;;
52202;SDS011;38173;52.850;6.970;2024-01-30T06:19:40;2.35;;;1.02;;
52202;SDS011;38173;52.850;6.970;2024-01-30T06:22:06;3.63;;;1.20;;
52202;SDS011;38173;52.850;6.970;2024-01-30T06:24:32;0.93;;;0.55;;
52202;SDS011;38173;52.850;6.970;2024-01-30T06:26:59;3.15;;;1.08;;
52202;SDS011;38173;52.850;6.970;2024-01-30T06:29:25;1.90;;;1.00;;
52202;SDS011;38173;52.850;6.970;2024-01-30T06:31:52;1.63;;;0.80;;
52202;SDS011;38173;52.850;6.970;2024-01-30T06:34:17;1.33;;;0.77;;
52202;SDS011;38173;52.850;6.970;2024-01-30T06:36:43;1.45;;;0.82;;
52202;SDS011;38173;52.850;6.970;2024-01-30T06:39:09;3.25;;;1.25;;
52202;SDS011;38173;52.850;6.970;2024-01-30T06:41:35;2.90;;;0.82;;
52202;SDS011;38173;52.850;6.970;2024-01-30T06:44:04;2.28;;;1.08;;
52202;SDS011;38173;52.850;6.970;2024-01-30T06:46:31;1.77;;;0.75;;
52202;SDS011;38173;52.850;6.970;2024-01-30T06:48:57;2.10;;;1.10;;
52202;SDS011;38173;52.850;6.970;2024-01-30T06:51:23;2.60;;;0.98;;
52202;SDS011;38173;52.850;6.970;2024-01-30T06:53:49;3.03;;;1.10;;
52202;SDS011;38173;52.850;6.970;2024-01-30T06:56:14;1.50;;;0.68;;
52202;SDS011;38173;52.850;6.970;2024-01-30T06:58:40;1.48;;;0.88;;
52202;SDS011;38173;52.850;6.970;2024-01-30T07:01:06;4.00;;;1.10;;
52202;SDS011;38173;52.850;6.970;2024-01-30T07:03:32;4.30;;;1.30;;
52202;SDS011;38173;52.850;6.970;2024-01-30T07:05:57;2.63;;;0.98;;
52202;SDS011;38173;52.850;6.970;2024-01-30T07:08:23;2.65;;;1.10;;
52202;SDS011;38173;52.850;6.970;2024-01-30T07:10:49;1.77;;;0.75;;
52202;SDS011;38173;52.850;6.970;2024-01-30T07:13:14;3.45;;;1.25;;
52202;SDS011;38173;52.850;6.970;2024-01-30T07:15:41;3.10;;;0.80;;
52202;SDS011;38173;52.850;6.970;2024-01-30T07:18:07;2.13;;;0.95;;
52202;SDS011;38173;52.850;6.970;2024-01-30T07:20:34;1.67;;;0.80;;
52202;SDS011;38173;52.850;6.970;2024-01-30T07:23:00;2.25;;;1.00;;
52202;SDS011;38173;52.850;6.970;2024-01-30T07:25:27;3.50;;;1.20;;
52202;SDS011;38173;52.850;6.970;2024-01-30T07:27:54;1.45;;;0.70;;
52202;SDS011;38173;52.850;6.970;2024-01-30T07:30:23;2.08;;;0.90;;
52202;SDS011;38173;52.850;6.970;2024-01-30T07:32:49;3.63;;;1.25;;
52202;SDS011;38173;52.850;6.970;2024-01-30T07:35:14;2.95;;;1.20;;
52202;SDS011;38173;52.850;6.970;2024-01-30T07:37:40;2.47;;;1.17;;
52202;SDS011;38173;52.850;6.970;2024-01-30T07:40:06;2.35;;;1.13;;
52202;SDS011;38173;52.850;6.970;2024-01-30T07:42:32;3.13;;;1.35;;
52202;SDS011;38173;52.850;6.970;2024-01-30T07:44:58;3.88;;;1.42;;
52202;SDS011;38173;52.850;6.970;2024-01-30T07:47:25;2.45;;;0.85;;
52202;SDS011;38173;52.850;6.970;2024-01-30T07:49:51;2.55;;;1.05;;
52202;SDS011;38173;52.850;6.970;2024-01-30T07:52:16;2.10;;;0.95;;
52202;SDS011;38173;52.850;6.970;2024-01-30T07:54:42;2.70;;;1.05;;
52202;SDS011;38173;52.850;6.970;2024-01-30T07:57:11;1.92;;;0.90;;
52202;SDS011;38173;52.850;6.970;2024-01-30T07:59:36;2.05;;;0.57;;
52202;SDS011;38173;52.850;6.970;2024-01-30T08:02:02;0.80;;;0.52;;
52202;SDS011;38173;52.850;6.970;2024-01-30T08:04:28;3.00;;;0.60;;
52202;SDS011;38173;52.850;6.970;2024-01-30T08:06:53;0.73;;;0.40;;
52202;SDS011;38173;52.850;6.970;2024-01-30T08:09:19;2.65;;;1.10;;
52202;SDS011;38173;52.850;6.970;2024-01-30T08:11:45;1.73;;;0.77;;
52202;SDS011;38173;52.850;6.970;2024-01-30T08:14:10;0.90;;;0.60;;
52202;SDS011;38173;52.850;6.970;2024-01-30T08:16:36;1.88;;;0.98;;
52202;SDS011;38173;52.850;6.970;2024-01-30T08:19:02;1.38;;;0.60;;
52202;SDS011;38173;52.850;6.970;2024-01-30T08:21:28;1.95;;;0.80;;
52202;SDS011;38173;52.850;6.970;2024-01-30T08:23:53;3.00;;;1.08;;
52202;SDS011;38173;52.850;6.970;2024-01-30T08:26:19;0.40;;;0.40;;
52202;SDS011;38173;52.850;6.970;2024-01-30T08:28:44;1.77;;;0.70;;
52202;SDS011;38173;52.850;6.970;2024-01-30T08:31:10;3.33;;;1.00;;
52202;SDS011;38173;52.850;6.970;2024-01-30T08:33:37;2.08;;;0.93;;
52202;SDS011;38173;52.850;6.970;2024-01-30T08:36:02;1.95;;;0.88;;
52202;SDS011;38173;52.850;6.970;2024-01-30T08:38:28;1.50;;;0.75;;
52202;SDS011;38173;52.850;6.970;2024-01-30T08:40:54;2.55;;;1.05;;
52202;SDS011;38173;52.850;6.970;2024-01-30T08:43:21;0.75;;;0.45;;
52202;SDS011;38173;52.850;6.970;2024-01-30T08:45:46;1.45;;;0.52;;
52202;SDS011;38173;52.850;6.970;2024-01-30T08:48:12;1.23;;;0.60;;
52202;SDS011;38173;52.850;6.970;2024-01-30T08:50:37;1.08;;;0.60;;
52202;SDS011;38173;52.850;6.970;2024-01-30T08:53:04;0.55;;;0.50;;
52202;SDS011;38173;52.850;6.970;2024-01-30T08:55:29;1.20;;;0.63;;
52202;SDS011;38173;52.850;6.970;2024-01-30T08:57:55;3.53;;;1.10;;
52202;SDS011;38173;52.850;6.970;2024-01-30T09:00:21;2.25;;;0.98;;
52202;SDS011;38173;52.850;6.970;2024-01-30T09:02:47;0.40;;;0.32;;
52202;SDS011;38173;52.850;6.970;2024-01-30T09:05:15;2.15;;;0.70;;
52202;SDS011;38173;52.850;6.970;2024-01-30T09:07:41;2.35;;;1.08;;
52202;SDS011;38173;52.850;6.970;2024-01-30T09:10:07;1.13;;;0.73;;
52202;SDS011;38173;52.850;6.970;2024-01-30T09:12:32;1.45;;;0.38;;
52202;SDS011;38173;52.850;6.970;2024-01-30T09:14:58;2.22;;;0.90;;
52202;SDS011;38173;52.850;6.970;2024-01-30T09:17:24;0.80;;;0.40;;
52202;SDS011;38173;52.850;6.970;2024-01-30T09:19:51;1.77;;;0.80;;
52202;SDS011;38173;52.850;6.970;2024-01-30T09:22:17;0.30;;;0.30;;
52202;SDS011;38173;52.850;6.970;2024-01-30T09:24:42;1.42;;;0.60;;
52202;SDS011;38173;52.850;6.970;2024-01-30T09:27:08;0.55;;;0.32;;
52202;SDS011;38173;52.850;6.970;2024-01-30T09:29:34;1.35;;;0.65;;
52202;SDS011;38173;52.850;6.970;2024-01-30T09:32:01;0.98;;;0.50;;
52202;SDS011;38173;52.850;6.970;2024-01-30T09:34:27;0.47;;;0.30;;
52202;SDS011;38173;52.850;6.970;2024-01-30T09:36:52;0.47;;;0.47;;
52202;SDS011;38173;52.850;6.970;2024-01-30T09:39:18;0.20;;;0.20;;
52202;SDS011;38173;52.850;6.970;2024-01-30T09:41:48;0.40;;;0.30;;
52202;SDS011;38173;52.850;6.970;2024-01-30T09:44:17;0.22;;;0.20;;
52202;SDS011;38173;52.850;6.970;2024-01-30T09:46:44;1.30;;;0.50;;
52202;SDS011;38173;52.850;6.970;2024-01-30T09:49:13;0.52;;;0.35;;
52202;SDS011;38173;52.850;6.970;2024-01-30T09:51:39;0.40;;;0.30;;
52202;SDS011;38173;52.850;6.970;2024-01-30T09:54:06;0.38;;;0.30;;
52202;SDS011;38173;52.850;6.970;2024-01-30T09:56:36;0.43;;;0.20;;
52202;SDS011;38173;52.850;6.970;2024-01-30T09:59:02;0.77;;;0.20;;
52202;SDS011;38173;52.850;6.970;2024-01-30T10:01:27;0.85;;;0.43;;
52202;SDS011;38173;52.850;6.970;2024-01-30T10:03:53;0.10;;;0.10;;
52202;SDS011;38173;52.850;6.970;2024-01-30T10:06:20;0.85;;;0.47;;
52202;SDS011;38173;52.850;6.970;2024-01-30T10:08:48;0.80;;;0.30;;
52202;SDS011;38173;52.850;6.970;2024-01-30T10:11:13;1.02;;;0.43;;
52202;SDS011;38173;52.850;6.970;2024-01-30T10:13:39;0.47;;;0.25;;
52202;SDS011;38173;52.850;6.970;2024-01-30T10:16:05;0.25;;;0.25;;
52202;SDS011;38173;52.850;6.970;2024-01-30T10:18:31;0.10;;;0.10;;
52202;SDS011;38173;52.850;6.970;2024-01-30T10:20:58;0.28;;;0.17;;
52202;SDS011;38173;52.850;6.970;2024-01-30T10:23:24;0.10;;;0.10;;
52202;SDS011;38173;52.850;6.970;2024-01-30T10:25:53;1.00;;;0.28;;
52202;SDS011;38173;52.850;6.970;2024-01-30T10:28:19;0.10;;;0.10;;
52202;SDS011;38173;52.850;6.970;2024-01-30T10:30:45;0.65;;;0.45;;
52202;SDS011;38173;52.850;6.970;2024-01-30T10:33:10;2.60;;;0.30;;
52202;SDS011;38173;52.850;6.970;2024-01-30T10:35:36;0.75;;;0.30;;
52202;SDS011;38173;52.850;6.970;2024-01-30T10:38:02;1.50;;;0.52;;
52202;SDS011;38173;52.850;6.970;2024-01-30T10:40:31;1.55;;;0.68;;
52202;SDS011;38173;52.850;6.970;2024-01-30T10:42:58;0.55;;;0.32;;
52202;SDS011;38173;52.850;6.970;2024-01-30T10:45:27;0.90;;;0.50;;
52202;SDS011;38173;52.850;6.970;2024-01-30T10:47:54;1.10;;;0.70;;
52202;SDS011;38173;52.850;6.970;2024-01-30T10:50:26;0.28;;;0.25;;
52202;SDS011;38173;52.850;6.970;2024-01-30T10:52:53;1.80;;;0.65;;
52202;SDS011;38173;52.850;6.970;2024-01-30T10:55:19;1.80;;;0.65;;
52202;SDS011;38173;52.850;6.970;2024-01-30T10:57:47;0.90;;;0.40;;
52202;SDS011;38173;52.850;6.970;2024-01-30T11:00:14;0.82;;;0.50;;
52202;SDS011;38173;52.850;6.970;2024-01-30T11:02:44;0.65;;;0.35;;
52202;SDS011;38173;52.850;6.970;2024-01-30T11:05:12;0.43;;;0.30;;
52202;SDS011;38173;52.850;6.970;2024-01-30T11:07:39;0.70;;;0.30;;
52202;SDS011;38173;52.850;6.970;2024-01-30T11:10:06;1.35;;;0.52;;
52202;SDS011;38173;52.850;6.970;2024-01-30T11:12:38;0.45;;;0.20;;
52202;SDS011;38173;52.850;6.970;2024-01-30T11:15:09;0.82;;;0.30;;
52202;SDS011;38173;52.850;6.970;2024-01-30T11:20:15;0.45;;;0.20;;
52202;SDS011;38173;52.850;6.970;2024-01-30T11:22:45;0.10;;;0.10;;
52202;SDS011;38173;52.850;6.970;2024-01-30T11:25:15;1.02;;;0.30;;
52202;SDS011;38173;52.850;6.970;2024-01-30T11:27:45;0.17;;;0.17;;
52202;SDS011;38173;52.850;6.970;2024-01-30T11:32:57;0.47;;;0.30;;
52202;SDS011;38173;52.850;6.970;2024-01-30T11:35:34;0.65;;;0.30;;
52202;SDS011;38173;52.850;6.970;2024-01-30T11:38:01;0.13;;;0.13;;
52202;SDS011;38173;52.850;6.970;2024-01-30T11:40:28;0.95;;;0.35;;
52202;SDS011;38173;52.850;6.970;2024-01-30T11:42:55;0.88;;;0.20;;
52202;SDS011;38173;52.850;6.970;2024-01-30T11:45:21;0.30;;;0.20;;
52202;SDS011;38173;52.850;6.970;2024-01-30T11:47:47;0.20;;;0.20;;
52202;SDS011;38173;52.850;6.970;2024-01-30T11:50:13;0.70;;;0.30;;
52202;SDS011;38173;52.850;6.970;2024-01-30T11:52:39;0.30;;;0.20;;
52202;SDS011;38173;52.850;6.970;2024-01-30T11:55:06;0.52;;;0.15;;
52202;SDS011;38173;52.850;6.970;2024-01-30T11:57:33;0.47;;;0.20;;
52202;SDS011;38173;52.850;6.970;2024-01-30T12:00:00;1.13;;;0.50;;
52202;SDS011;38173;52.850;6.970;2024-01-30T12:02:26;0.30;;;0.13;;
52202;SDS011;38173;52.850;6.970;2024-01-30T12:04:52;0.47;;;0.40;;
52202;SDS011;38173;52.850;6.970;2024-01-30T12:07:17;0.75;;;0.28;;
52202;SDS011;38173;52.850;6.970;2024-01-30T12:09:51;0.55;;;0.32;;
52202;SDS011;38173;52.850;6.970;2024-01-30T12:12:19;0.20;;;0.20;;
52202;SDS011;38173;52.850;6.970;2024-01-30T12:14:46;0.30;;;0.30;;
52202;SDS011;38173;52.850;6.970;2024-01-30T12:17:22;0.38;;;0.20;;
52202;SDS011;38173;52.850;6.970;2024-01-30T12:20:04;0.55;;;0.28;;
52202;SDS011;38173;52.850;6.970;2024-01-30T12:22:43;0.28;;;0.28;;
52202;SDS011;38173;52.850;6.970;2024-01-30T12:25:10;0.40;;;0.25;;
52202;SDS011;38173;52.850;6.970;2024-01-30T12:27:44;0.85;;;0.30;;
52202;SDS011;38173;52.850;6.970;2024-01-30T12:30:18;0.40;;;0.30;;
52202;SDS011;38173;52.850;6.970;2024-01-30T12:32:45;0.10;;;0.10;;
52202;SDS011;38173;52.850;6.970;2024-01-30T12:35:13;0.10;;;0.10;;
52202;SDS011;38173;52.850;6.970;2024-01-30T12:37:40;1.27;;;0.30;;
52202;SDS011;38173;52.850;6.970;2024-01-30T12:40:07;1.00;;;0.20;;
52202;SDS011;38173;52.850;6.970;2024-01-30T12:42:34;0.90;;;0.28;;
52202;SDS011;38173;52.850;6.970;2024-01-30T12:45:03;0.20;;;0.20;;
52202;SDS011;38173;52.850;6.970;2024-01-30T12:47:30;0.45;;;0.25;;
52202;SDS011;38173;52.850;6.970;2024-01-30T12:49:56;0.90;;;0.38;;
52202;SDS011;38173;52.850;6.970;2024-01-30T12:52:22;0.50;;;0.40;;
52202;SDS011;38173;52.850;6.970;2024-01-30T12:54:48;0.77;;;0.30;;
52202;SDS011;38173;52.850;6.970;2024-01-30T12:57:16;0.40;;;0.30;;
52202;SDS011;38173;52.850;6.970;2024-01-30T12:59:43;0.65;;;0.30;;
52202;SDS011;38173;52.850;6.970;2024-01-30T13:02:09;0.70;;;0.40;;
52202;SDS011;38173;52.850;6.970;2024-01-30T13:04:35;0.20;;;0.20;;
52202;SDS011;38173;52.850;6.970;2024-01-30T13:07:01;0.20;;;0.20;;
52202;SDS011;38173;52.850;6.970;2024-01-30T13:09:29;0.40;;;0.38;;
52202;SDS011;38173;52.850;6.970;2024-01-30T13:11:55;0.57;;;0.35;;
52202;SDS011;38173;52.850;6.970;2024-01-30T13:14:23;1.02;;;0.57;;
52202;SDS011;38173;52.850;6.970;2024-01-30T13:16:49;1.80;;;0.47;;
52202;SDS011;38173;52.850;6.970;2024-01-30T13:19:14;0.70;;;0.38;;
52202;SDS011;38173;52.850;6.970;2024-01-30T13:21:41;0.65;;;0.38;;
52202;SDS011;38173;52.850;6.970;2024-01-30T13:24:06;2.03;;;0.73;;
52202;SDS011;38173;52.850;6.970;2024-01-30T13:26:32;0.43;;;0.35;;
52202;SDS011;38173;52.850;6.970;2024-01-30T13:28:58;0.77;;;0.40;;
52202;SDS011;38173;52.850;6.970;2024-01-30T13:31:24;1.00;;;0.45;;
52202;SDS011;38173;52.850;6.970;2024-01-30T13:33:50;1.02;;;0.57;;
52202;SDS011;38173;52.850;6.970;2024-01-30T13:36:15;0.20;;;0.20;;
52202;SDS011;38173;52.850;6.970;2024-01-30T13:38:41;0.52;;;0.25;;
52202;SDS011;38173;52.850;6.970;2024-01-30T13:41:07;0.45;;;0.40;;
52202;SDS011;38173;52.850;6.970;2024-01-30T13:43:32;0.20;;;0.20;;
52202;SDS011;38173;52.850;6.970;2024-01-30T13:45:58;0.40;;;0.30;;
52202;SDS011;38173;52.850;6.970;2024-01-30T13:48:24;0.28;;;0.28;;
52202;SDS011;38173;52.850;6.970;2024-01-30T13:50:50;1.40;;;0.50;;
52202;SDS011;38173;52.850;6.970;2024-01-30T13:53:16;0.20;;;0.20;;
52202;SDS011;38173;52.850;6.970;2024-01-30T13:55:41;0.95;;;0.30;;
52202;SDS011;38173;52.850;6.970;2024-01-30T13:58:07;0.50;;;0.50;;
52202;SDS011;38173;52.850;6.970;2024-01-30T14:00:33;1.40;;;0.55;;
52202;SDS011;38173;52.850;6.970;2024-01-30T14:02:59;0.43;;;0.35;;
52202;SDS011;38173;52.850;6.970;2024-01-30T14:05:25;0.35;;;0.35;;
52202;SDS011;38173;52.850;6.970;2024-01-30T14:07:52;0.45;;;0.38;;
52202;SDS011;38173;52.850;6.970;2024-01-30T14:10:18;1.08;;;0.60;;
52202;SDS011;38173;52.850;6.970;2024-01-30T14:12:44;1.48;;;0.50;;
52202;SDS011;38173;52.850;6.970;2024-01-30T14:15:10;1.05;;;0.43;;
52202;SDS011;38173;52.850;6.970;2024-01-30T14:17:37;0.43;;;0.30;;
52202;SDS011;38173;52.850;6.970;2024-01-30T14:20:03;0.40;;;0.30;;
52202;SDS011;38173;52.850;6.970;2024-01-30T14:22:30;1.60;;;0.55;;
52202;SDS011;38173;52.850;6.970;2024-01-30T14:24:56;0.13;;;0.13;;
52202;SDS011;38173;52.850;6.970;2024-01-30T14:27:22;0.20;;;0.20;;
52202;SDS011;38173;52.850;6.970;2024-01-30T14:29:47;0.75;;;0.40;;
52202;SDS011;38173;52.850;6.970;2024-01-30T14:32:13;0.40;;;0.30;;
52202;SDS011;38173;52.850;6.970;2024-01-30T14:34:39;0.10;;;0.10;;
52202;SDS011;38173;52.850;6.970;2024-01-30T14:37:05;0.50;;;0.30;;
52202;SDS011;38173;52.850;6.970;2024-01-30T14:39:33;1.13;;;0.50;;
52202;SDS011;38173;52.850;6.970;2024-01-30T14:42:02;0.68;;;0.20;;
52202;SDS011;38173;52.850;6.970;2024-01-30T14:44:28;0.10;;;0.10;;
52202;SDS011;38173;52.850;6.970;2024-01-30T14:46:55;0.20;;;0.20;;
52202;SDS011;38173;52.850;6.970;2024-01-30T14:49:21;0.65;;;0.30;;